JAL3653 RJFF-RJFK
Flight info
| Callsign | JAL3653 |
|---|---|
| Flight time | 0h 35m |
| Altitude | 16000 |
| Route | YAMGA KUE/N0314F140 ESLIL HIGOH KGE |
| Aircraft | DH8D/M-SDE2E3FGRY/H |
Departure
| Time | 2026-05-08 12:05 |
|---|---|
| Airport | Fukuoka Airport (RJFF) |
Arrival
| Time | 2026-05-08 12:41 |
|---|---|
| Airport | Kagoshima Airport (RJFK) |
| Time | Latitude | Longitude | Altitude | Speed | Heading |
|---|---|---|---|---|---|
| 2026-05-08 11:40 | 33.59214 | 130.44972 | 44 ft | 0 kts | 60° |
| 2026-05-08 12:01 | 33.59216 | 130.44980 | 44 ft | 3 kts | 66° |
| 2026-05-08 12:01 | 33.59198 | 130.44981 | 44 ft | 7 kts | 247° |
| 2026-05-08 12:01 | 33.59185 | 130.44907 | 44 ft | 9 kts | 277° |
| 2026-05-08 12:01 | 33.59237 | 130.44856 | 44 ft | 13 kts | 329° |
| 2026-05-08 12:02 | 33.59314 | 130.44804 | 44 ft | 11 kts | 330° |
| 2026-05-08 12:02 | 33.59387 | 130.44754 | 44 ft | 15 kts | 329° |
| 2026-05-08 12:02 | 33.59486 | 130.44687 | 44 ft | 15 kts | 329° |
| 2026-05-08 12:02 | 33.59578 | 130.44624 | 44 ft | 15 kts | 330° |
| 2026-05-08 12:03 | 33.59664 | 130.44565 | 44 ft | 11 kts | 329° |
| 2026-05-08 12:03 | 33.59729 | 130.44516 | 44 ft | 10 kts | 316° |
| 2026-05-08 12:03 | 33.59744 | 130.44455 | 44 ft | 5 kts | 252° |
| 2026-05-08 12:03 | 33.59725 | 130.44415 | 44 ft | 5 kts | 240° |
| 2026-05-08 12:04 | 33.59708 | 130.44382 | 44 ft | 4 kts | 240° |
| 2026-05-08 12:04 | 33.59688 | 130.44339 | 44 ft | 7 kts | 227° |
| 2026-05-08 12:04 | 33.59621 | 130.44368 | 44 ft | 22 kts | 150° |
| 2026-05-08 12:04 | 33.59234 | 130.44632 | 44 ft | 103 kts | 150° |
| 2026-05-08 12:05 | 33.58429 | 130.45181 | 57 ft | 154 kts | 152° |
| 2026-05-08 12:05 | 33.57460 | 130.45824 | 417 ft | 163 kts | 155° |
| 2026-05-08 12:05 | 33.56410 | 130.46452 | 886 ft | 176 kts | 156° |
| 2026-05-08 12:05 | 33.55303 | 130.47116 | 1465 ft | 181 kts | 156° |
| 2026-05-08 12:06 | 33.54118 | 130.47835 | 1772 ft | 202 kts | 154° |
| 2026-05-08 12:06 | 33.52829 | 130.48633 | 2204 ft | 216 kts | 154° |
| 2026-05-08 12:06 | 33.51463 | 130.49483 | 2672 ft | 227 kts | 153° |
| 2026-05-08 12:06 | 33.50046 | 130.50369 | 3233 ft | 233 kts | 153° |
| 2026-05-08 12:07 | 33.48623 | 130.51259 | 3909 ft | 233 kts | 153° |
| 2026-05-08 12:07 | 33.47177 | 130.52161 | 4533 ft | 237 kts | 153° |
| 2026-05-08 12:07 | 33.45744 | 130.53055 | 5231 ft | 236 kts | 153° |
| 2026-05-08 12:07 | 33.44260 | 130.53979 | 5893 ft | 239 kts | 153° |
| 2026-05-08 12:08 | 33.42777 | 130.54904 | 6500 ft | 244 kts | 153° |
| 2026-05-08 12:08 | 33.41289 | 130.55832 | 7118 ft | 247 kts | 153° |
| 2026-05-08 12:08 | 33.39743 | 130.56795 | 7677 ft | 253 kts | 154° |
| 2026-05-08 12:08 | 33.38173 | 130.57771 | 8289 ft | 257 kts | 154° |
| 2026-05-08 12:09 | 33.36610 | 130.58746 | 8995 ft | 253 kts | 154° |
| 2026-05-08 12:09 | 33.35045 | 130.59720 | 9603 ft | 254 kts | 155° |
| 2026-05-08 12:09 | 33.33475 | 130.60695 | 10197 ft | 258 kts | 156° |
| 2026-05-08 12:09 | 33.31881 | 130.61687 | 10846 ft | 258 kts | 157° |
| 2026-05-08 12:10 | 33.30285 | 130.62676 | 11424 ft | 259 kts | 158° |
| 2026-05-08 12:10 | 33.28691 | 130.63666 | 11971 ft | 262 kts | 158° |
| 2026-05-08 12:10 | 33.27084 | 130.64667 | 12586 ft | 260 kts | 159° |
| 2026-05-08 12:10 | 33.25465 | 130.65666 | 13059 ft | 263 kts | 160° |
| 2026-05-08 12:11 | 33.23818 | 130.66685 | 13572 ft | 264 kts | 161° |
| 2026-05-08 12:11 | 33.22191 | 130.67690 | 14029 ft | 266 kts | 161° |
| 2026-05-08 12:11 | 33.20557 | 130.68701 | 14522 ft | 266 kts | 161° |
| 2026-05-08 12:11 | 33.18900 | 130.69724 | 14894 ft | 271 kts | 162° |
| 2026-05-08 12:12 | 33.17219 | 130.70764 | 15395 ft | 270 kts | 162° |
| 2026-05-08 12:12 | 33.15538 | 130.71802 | 15777 ft | 274 kts | 162° |
| 2026-05-08 12:12 | 33.13808 | 130.72864 | 15969 ft | 287 kts | 162° |
| 2026-05-08 12:12 | 33.11993 | 130.73978 | 16032 ft | 293 kts | 161° |
| 2026-05-08 12:13 | 33.10175 | 130.75075 | 16050 ft | 287 kts | 166° |
| 2026-05-08 12:13 | 33.08335 | 130.75815 | 16060 ft | 276 kts | 175° |
| 2026-05-08 12:13 | 33.06488 | 130.76436 | 16058 ft | 272 kts | 175° |
| 2026-05-08 12:13 | 33.04681 | 130.77039 | 16063 ft | 270 kts | 175° |
| 2026-05-08 12:14 | 33.02862 | 130.77641 | 16063 ft | 271 kts | 175° |
| 2026-05-08 12:14 | 33.01049 | 130.78242 | 16063 ft | 271 kts | 175° |
| 2026-05-08 12:14 | 32.99230 | 130.78848 | 16068 ft | 271 kts | 175° |
| 2026-05-08 12:14 | 32.97413 | 130.79454 | 16066 ft | 271 kts | 175° |
| 2026-05-08 12:15 | 32.95583 | 130.80064 | 16068 ft | 272 kts | 175° |
| 2026-05-08 12:15 | 32.93750 | 130.80676 | 16056 ft | 272 kts | 175° |
| 2026-05-08 12:15 | 32.91940 | 130.81282 | 16054 ft | 271 kts | 175° |
| 2026-05-08 12:15 | 32.90115 | 130.81892 | 16058 ft | 271 kts | 175° |
| 2026-05-08 12:16 | 32.88287 | 130.82504 | 16067 ft | 271 kts | 175° |
| 2026-05-08 12:16 | 32.86457 | 130.83115 | 16064 ft | 273 kts | 175° |
| 2026-05-08 12:16 | 32.84625 | 130.83723 | 16065 ft | 275 kts | 175° |
| 2026-05-08 12:16 | 32.82764 | 130.84203 | 16065 ft | 270 kts | 184° |
| 2026-05-08 12:17 | 32.80908 | 130.84383 | 16060 ft | 270 kts | 187° |
| 2026-05-08 12:17 | 32.78983 | 130.84531 | 15851 ft | 278 kts | 186° |
| 2026-05-08 12:17 | 32.77049 | 130.84691 | 15475 ft | 277 kts | 186° |
| 2026-05-08 12:17 | 32.75150 | 130.84856 | 15086 ft | 274 kts | 186° |
| 2026-05-08 12:18 | 32.73244 | 130.85020 | 14696 ft | 272 kts | 185° |
| 2026-05-08 12:18 | 32.71373 | 130.85182 | 14319 ft | 270 kts | 185° |
| 2026-05-08 12:18 | 32.69507 | 130.85342 | 13947 ft | 268 kts | 185° |
| 2026-05-08 12:18 | 32.67639 | 130.85503 | 13553 ft | 267 kts | 185° |
| 2026-05-08 12:19 | 32.65808 | 130.85660 | 13182 ft | 265 kts | 185° |
| 2026-05-08 12:19 | 32.63958 | 130.85818 | 12803 ft | 264 kts | 184° |
| 2026-05-08 12:19 | 32.62143 | 130.85974 | 12418 ft | 262 kts | 184° |
| 2026-05-08 12:19 | 32.60344 | 130.86130 | 12167 ft | 254 kts | 184° |
| 2026-05-08 12:20 | 32.58636 | 130.86285 | 12083 ft | 238 kts | 184° |
| 2026-05-08 12:20 | 32.57009 | 130.86429 | 12071 ft | 232 kts | 185° |
| 2026-05-08 12:20 | 32.55380 | 130.86554 | 12069 ft | 237 kts | 185° |
| 2026-05-08 12:20 | 32.53703 | 130.86685 | 12068 ft | 242 kts | 185° |
| 2026-05-08 12:21 | 32.52008 | 130.86821 | 12066 ft | 246 kts | 184° |
| 2026-05-08 12:21 | 32.50278 | 130.86963 | 12064 ft | 251 kts | 184° |
| 2026-05-08 12:21 | 32.48537 | 130.87109 | 12065 ft | 253 kts | 184° |
| 2026-05-08 12:21 | 32.46772 | 130.87259 | 12064 ft | 255 kts | 184° |
| 2026-05-08 12:22 | 32.44992 | 130.87411 | 12059 ft | 257 kts | 183° |
| 2026-05-08 12:22 | 32.43183 | 130.87566 | 12061 ft | 257 kts | 183° |
| 2026-05-08 12:22 | 32.41411 | 130.87718 | 12060 ft | 258 kts | 183° |
| 2026-05-08 12:22 | 32.39611 | 130.87872 | 12056 ft | 259 kts | 183° |
| 2026-05-08 12:23 | 32.37805 | 130.88028 | 12052 ft | 260 kts | 183° |
| 2026-05-08 12:23 | 32.36005 | 130.88181 | 12050 ft | 260 kts | 183° |
| 2026-05-08 12:23 | 32.34197 | 130.88336 | 12050 ft | 261 kts | 183° |
| 2026-05-08 12:23 | 32.32361 | 130.88492 | 12042 ft | 261 kts | 182° |
| 2026-05-08 12:24 | 32.30566 | 130.88646 | 12036 ft | 262 kts | 182° |
| 2026-05-08 12:24 | 32.28730 | 130.88803 | 12034 ft | 262 kts | 183° |
| 2026-05-08 12:24 | 32.26908 | 130.88959 | 12038 ft | 262 kts | 183° |
| 2026-05-08 12:24 | 32.25088 | 130.89114 | 12037 ft | 262 kts | 182° |
| 2026-05-08 12:25 | 32.23271 | 130.89296 | 12040 ft | 262 kts | 182° |
| 2026-05-08 12:25 | 32.21443 | 130.89435 | 11933 ft | 267 kts | 183° |
| 2026-05-08 12:25 | 32.19544 | 130.89554 | 11574 ft | 276 kts | 183° |
| 2026-05-08 12:25 | 32.17607 | 130.89661 | 11204 ft | 283 kts | 183° |
| 2026-05-08 12:26 | 32.15625 | 130.89754 | 10821 ft | 287 kts | 183° |
| 2026-05-08 12:26 | 32.13604 | 130.89831 | 10431 ft | 289 kts | 183° |
| 2026-05-08 12:26 | 32.11615 | 130.89905 | 10034 ft | 284 kts | 183° |
| 2026-05-08 12:26 | 32.09661 | 130.89964 | 9639 ft | 280 kts | 183° |
| 2026-05-08 12:27 | 32.07722 | 130.90010 | 9236 ft | 276 kts | 183° |
| 2026-05-08 12:27 | 32.05815 | 130.90047 | 8840 ft | 273 kts | 183° |
| 2026-05-08 12:27 | 32.03931 | 130.90074 | 8436 ft | 269 kts | 183° |
| 2026-05-08 12:27 | 32.02067 | 130.90097 | 8143 ft | 264 kts | 183° |
| 2026-05-08 12:28 | 32.00250 | 130.90111 | 8045 ft | 260 kts | 183° |
| 2026-05-08 12:28 | 31.98440 | 130.90120 | 8015 ft | 255 kts | 184° |
| 2026-05-08 12:28 | 31.96701 | 130.90129 | 8001 ft | 248 kts | 184° |
| 2026-05-08 12:28 | 31.94987 | 130.90141 | 7997 ft | 242 kts | 184° |
| 2026-05-08 12:29 | 31.93320 | 130.90158 | 7999 ft | 237 kts | 184° |
| 2026-05-08 12:29 | 31.91686 | 130.90183 | 8001 ft | 232 kts | 183° |
| 2026-05-08 12:29 | 31.90093 | 130.90205 | 7995 ft | 227 kts | 184° |
| 2026-05-08 12:29 | 31.88516 | 130.90231 | 7991 ft | 221 kts | 184° |
| 2026-05-08 12:30 | 31.86982 | 130.90256 | 7991 ft | 218 kts | 184° |
| 2026-05-08 12:30 | 31.85460 | 130.90279 | 8004 ft | 223 kts | 184° |
| 2026-05-08 12:30 | 31.83876 | 130.90294 | 8005 ft | 229 kts | 184° |
| 2026-05-08 12:30 | 31.82264 | 130.90306 | 8008 ft | 233 kts | 184° |
| 2026-05-08 12:31 | 31.80618 | 130.90312 | 7998 ft | 238 kts | 184° |
| 2026-05-08 12:31 | 31.78943 | 130.90315 | 7726 ft | 244 kts | 183° |
| 2026-05-08 12:31 | 31.77223 | 130.90315 | 7330 ft | 249 kts | 183° |
| 2026-05-08 12:31 | 31.75487 | 130.90303 | 6897 ft | 252 kts | 183° |
| 2026-05-08 12:32 | 31.73747 | 130.90285 | 6451 ft | 251 kts | 183° |
| 2026-05-08 12:32 | 31.71991 | 130.90257 | 6006 ft | 250 kts | 183° |
| 2026-05-08 12:32 | 31.70262 | 130.90225 | 5567 ft | 250 kts | 183° |
| 2026-05-08 12:32 | 31.68535 | 130.90189 | 5125 ft | 249 kts | 184° |
| 2026-05-08 12:33 | 31.66794 | 130.90150 | 4678 ft | 249 kts | 183° |
| 2026-05-08 12:33 | 31.65063 | 130.90103 | 4234 ft | 249 kts | 184° |
| 2026-05-08 12:33 | 31.63338 | 130.90053 | 3787 ft | 248 kts | 183° |
| 2026-05-08 12:33 | 31.61631 | 130.89998 | 3468 ft | 242 kts | 184° |
| 2026-05-08 12:34 | 31.59950 | 130.89941 | 3360 ft | 236 kts | 184° |
| 2026-05-08 12:34 | 31.58382 | 130.89624 | 3301 ft | 222 kts | 208° |
| 2026-05-08 12:34 | 31.57280 | 130.88518 | 3301 ft | 205 kts | 245° |
| 2026-05-08 12:34 | 31.56964 | 130.86975 | 3299 ft | 189 kts | 282° |
| 2026-05-08 12:35 | 31.57486 | 130.85643 | 3308 ft | 180 kts | 316° |
| 2026-05-08 12:35 | 31.58555 | 130.84924 | 3311 ft | 177 kts | 343° |
| 2026-05-08 12:35 | 31.59736 | 130.84506 | 3314 ft | 179 kts | 344° |
| 2026-05-08 12:35 | 31.60965 | 130.84132 | 3309 ft | 181 kts | 346° |
| 2026-05-08 12:36 | 31.62206 | 130.83771 | 3307 ft | 183 kts | 346° |
| 2026-05-08 12:36 | 31.63434 | 130.83371 | 3303 ft | 183 kts | 339° |
| 2026-05-08 12:36 | 31.64578 | 130.82683 | 3303 ft | 185 kts | 332° |
| 2026-05-08 12:36 | 31.65693 | 130.81921 | 3303 ft | 186 kts | 331° |
| 2026-05-08 12:37 | 31.66817 | 130.81155 | 3301 ft | 185 kts | 331° |
| 2026-05-08 12:37 | 31.67915 | 130.80379 | 3294 ft | 180 kts | 330° |
| 2026-05-08 12:37 | 31.68984 | 130.79633 | 3190 ft | 180 kts | 331° |
| 2026-05-08 12:37 | 31.70060 | 130.78900 | 2998 ft | 181 kts | 331° |
| 2026-05-08 12:38 | 31.71145 | 130.78163 | 2701 ft | 175 kts | 331° |
| 2026-05-08 12:38 | 31.72169 | 130.77470 | 2444 ft | 167 kts | 331° |
| 2026-05-08 12:38 | 31.73152 | 130.76805 | 2214 ft | 158 kts | 332° |
| 2026-05-08 12:38 | 31.74079 | 130.76178 | 2003 ft | 149 kts | 331° |
| 2026-05-08 12:39 | 31.74943 | 130.75592 | 1833 ft | 139 kts | 331° |
| 2026-05-08 12:39 | 31.75764 | 130.75029 | 1670 ft | 133 kts | 330° |
| 2026-05-08 12:39 | 31.76541 | 130.74480 | 1534 ft | 128 kts | 330° |
| 2026-05-08 12:39 | 31.77301 | 130.73993 | 1352 ft | 122 kts | 332° |
| 2026-05-08 12:40 | 31.78045 | 130.73476 | 1163 ft | 123 kts | 330° |
| 2026-05-08 12:40 | 31.78789 | 130.72984 | 966 ft | 123 kts | 330° |
| 2026-05-08 12:40 | 31.79506 | 130.72501 | 870 ft | 112 kts | 330° |
| 2026-05-08 12:40 | 31.80033 | 130.72145 | 890 ft | 62 kts | 330° |
| 2026-05-08 12:41 | 31.80304 | 130.71962 | 895 ft | 32 kts | 330° |
| 2026-05-08 12:41 | 31.80452 | 130.71863 | 897 ft | 17 kts | 330° |
| 2026-05-08 12:41 | 31.80513 | 130.71788 | 897 ft | 9 kts | 270° |
| 2026-05-08 12:41 | 31.80494 | 130.71729 | 900 ft | 5 kts | 239° |
| 2026-05-08 12:42 | 31.80483 | 130.71706 | 903 ft | 2 kts | 240° |
| 2026-05-08 12:42 | 31.80458 | 130.71672 | 905 ft | 8 kts | 211° |
| 2026-05-08 12:42 | 31.80380 | 130.71689 | 905 ft | 14 kts | 150° |
| 2026-05-08 12:42 | 31.80288 | 130.71751 | 905 ft | 15 kts | 149° |
| 2026-05-08 12:43 | 31.80189 | 130.71817 | 905 ft | 17 kts | 149° |
| 2026-05-08 12:43 | 31.80084 | 130.71889 | 904 ft | 12 kts | 150° |
| 2026-05-08 12:43 | 31.80038 | 130.71896 | 904 ft | 7 kts | 234° |
| 2026-05-08 12:43 | 31.80017 | 130.71855 | 905 ft | 3 kts | 253° |
| 2026-05-08 12:44 | 31.80027 | 130.71849 | 905 ft | 0 kts | 18° |
| 2026-05-08 12:44 | 31.80034 | 130.71849 | 905 ft | 1 kts | 6° |
| 2026-05-08 12:44 | 31.80036 | 130.71849 | 905 ft | 0 kts | 6° |